sensor_id;sensor_type;location;lat;lon;timestamp;pressure;altitude;pressure_sealevel;temperature;humidity
76827;BME280;65788;52.284;20.890;2023-08-24T00:02:03;100623.56;;;25.45;46.82
76827;BME280;65788;52.284;20.890;2023-08-24T00:04:30;100623.11;;;25.41;46.83
76827;BME280;65788;52.284;20.890;2023-08-24T00:06:58;100624.16;;;25.40;46.79
76827;BME280;65788;52.284;20.890;2023-08-24T00:09:25;100622.63;;;25.38;46.71
76827;BME280;65788;52.284;20.890;2023-08-24T00:11:51;100626.30;;;25.41;46.70
76827;BME280;65788;52.284;20.890;2023-08-24T00:14:19;100624.00;;;25.40;46.70
76827;BME280;65788;52.284;20.890;2023-08-24T00:16:46;100628.20;;;25.40;46.62
76827;BME280;65788;52.284;20.890;2023-08-24T00:19:13;100628.08;;;25.39;46.61
76827;BME280;65788;52.284;20.890;2023-08-24T00:21:40;100628.27;;;25.38;46.60
76827;BME280;65788;52.284;20.890;2023-08-24T00:24:07;100628.68;;;25.39;46.51
76827;BME280;65788;52.284;20.890;2023-08-24T00:26:34;100627.30;;;25.36;46.48
76827;BME280;65788;52.284;20.890;2023-08-24T00:29:01;100623.58;;;25.35;46.49
76827;BME280;65788;52.284;20.890;2023-08-24T00:31:28;100625.95;;;25.36;46.44
76827;BME280;65788;52.284;20.890;2023-08-24T00:33:55;100622.30;;;25.35;46.43
76827;BME280;65788;52.284;20.890;2023-08-24T00:36:24;100619.04;;;25.35;46.38
76827;BME280;65788;52.284;20.890;2023-08-24T00:38:53;100618.96;;;25.31;46.40
76827;BME280;65788;52.284;20.890;2023-08-24T00:41:20;100614.23;;;25.27;46.49
76827;BME280;65788;52.284;20.890;2023-08-24T00:43:48;100613.39;;;25.27;46.46
76827;BME280;65788;52.284;20.890;2023-08-24T00:46:16;100612.55;;;25.27;46.43
76827;BME280;65788;52.284;20.890;2023-08-24T00:48:46;100611.79;;;25.24;46.41
76827;BME280;65788;52.284;20.890;2023-08-24T00:51:14;100610.52;;;25.24;46.33
76827;BME280;65788;52.284;20.890;2023-08-24T00:53:41;100610.80;;;25.25;46.32
76827;BME280;65788;52.284;20.890;2023-08-24T00:56:08;100614.63;;;25.27;46.21
76827;BME280;65788;52.284;20.890;2023-08-24T00:58:35;100614.94;;;25.25;46.17
76827;BME280;65788;52.284;20.890;2023-08-24T01:01:03;100611.71;;;25.19;46.25
76827;BME280;65788;52.284;20.890;2023-08-24T01:03:30;100612.42;;;25.22;46.21
76827;BME280;65788;52.284;20.890;2023-08-24T01:05:57;100610.86;;;25.21;46.13
76827;BME280;65788;52.284;20.890;2023-08-24T01:08:24;100612.05;;;25.15;46.08
76827;BME280;65788;52.284;20.890;2023-08-24T01:10:59;100618.70;;;25.11;46.23
76827;BME280;65788;52.284;20.890;2023-08-24T01:14:08;100613.14;;;25.13;46.11
76827;BME280;65788;52.284;20.890;2023-08-24T01:16:29;100610.69;;;25.14;46.08
76827;BME280;65788;52.284;20.890;2023-08-24T01:18:58;100613.22;;;25.07;46.06
76827;BME280;65788;52.284;20.890;2023-08-24T01:21:26;100613.41;;;25.05;46.18
76827;BME280;65788;52.284;20.890;2023-08-24T01:24:10;100613.09;;;25.09;46.03
76827;BME280;65788;52.284;20.890;2023-08-24T01:26:40;100611.86;;;25.06;45.98
76827;BME280;65788;52.284;20.890;2023-08-24T01:29:08;100613.80;;;25.09;45.87
76827;BME280;65788;52.284;20.890;2023-08-24T01:31:36;100612.80;;;25.09;45.85
76827;BME280;65788;52.284;20.890;2023-08-24T01:34:04;100611.91;;;25.06;45.83
76827;BME280;65788;52.284;20.890;2023-08-24T01:36:31;100609.09;;;25.08;45.77
76827;BME280;65788;52.284;20.890;2023-08-24T01:39:15;100612.80;;;25.10;45.67
76827;BME280;65788;52.284;20.890;2023-08-24T01:41:52;100612.19;;;25.09;45.72
76827;BME280;65788;52.284;20.890;2023-08-24T01:44:21;100603.27;;;25.12;45.63
76827;BME280;65788;52.284;20.890;2023-08-24T01:46:49;100605.97;;;25.09;45.65
76827;BME280;65788;52.284;20.890;2023-08-24T01:49:18;100603.36;;;25.07;45.69
76827;BME280;65788;52.284;20.890;2023-08-24T01:51:46;100602.98;;;25.08;45.68
76827;BME280;65788;52.284;20.890;2023-08-24T01:54:14;100602.21;;;25.09;45.63
76827;BME280;65788;52.284;20.890;2023-08-24T01:56:40;100600.64;;;25.09;45.64
76827;BME280;65788;52.284;20.890;2023-08-24T01:59:08;100598.16;;;25.08;45.66
76827;BME280;65788;52.284;20.890;2023-08-24T02:01:34;100596.92;;;25.07;45.66
76827;BME280;65788;52.284;20.890;2023-08-24T02:04:01;100594.83;;;25.09;45.63
76827;BME280;65788;52.284;20.890;2023-08-24T02:06:28;100595.76;;;25.08;45.62
76827;BME280;65788;52.284;20.890;2023-08-24T02:08:55;100597.48;;;25.07;45.65
76827;BME280;65788;52.284;20.890;2023-08-24T02:11:23;100590.73;;;25.05;45.69
76827;BME280;65788;52.284;20.890;2023-08-24T02:13:50;100589.95;;;25.05;45.70
76827;BME280;65788;52.284;20.890;2023-08-24T02:16:17;100590.55;;;25.04;45.74
76827;BME280;65788;52.284;20.890;2023-08-24T02:18:44;100589.29;;;25.06;45.69
76827;BME280;65788;52.284;20.890;2023-08-24T02:21:12;100592.55;;;25.07;45.69
76827;BME280;65788;52.284;20.890;2023-08-24T02:23:42;100590.91;;;25.06;45.69
76827;BME280;65788;52.284;20.890;2023-08-24T02:26:09;100588.15;;;25.05;45.74
76827;BME280;65788;52.284;20.890;2023-08-24T02:28:37;100587.38;;;25.05;45.75
76827;BME280;65788;52.284;20.890;2023-08-24T02:31:04;100579.70;;;25.01;45.84
76827;BME280;65788;52.284;20.890;2023-08-24T02:33:32;100583.45;;;25.02;45.84
76827;BME280;65788;52.284;20.890;2023-08-24T02:35:59;100585.77;;;25.02;45.83
76827;BME280;65788;52.284;20.890;2023-08-24T02:38:26;100586.80;;;25.01;45.90
76827;BME280;65788;52.284;20.890;2023-08-24T02:41:03;100587.15;;;25.01;45.88
76827;BME280;65788;52.284;20.890;2023-08-24T02:43:31;100590.35;;;25.02;45.84
76827;BME280;65788;52.284;20.890;2023-08-24T02:46:03;100591.96;;;25.01;45.86
76827;BME280;65788;52.284;20.890;2023-08-24T02:48:31;100587.58;;;25.00;45.89
76827;BME280;65788;52.284;20.890;2023-08-24T02:51:00;100590.56;;;25.02;45.87
76827;BME280;65788;52.284;20.890;2023-08-24T02:53:27;100591.22;;;25.00;45.91
76827;BME280;65788;52.284;20.890;2023-08-24T02:55:57;100593.71;;;24.99;45.92
76827;BME280;65788;52.284;20.890;2023-08-24T02:58:24;100594.60;;;24.98;45.96
76827;BME280;65788;52.284;20.890;2023-08-24T03:00:51;100595.52;;;24.92;46.02
76827;BME280;65788;52.284;20.890;2023-08-24T03:03:18;100591.91;;;24.95;46.01
76827;BME280;65788;52.284;20.890;2023-08-24T03:06:11;100594.23;;;24.97;45.96
76827;BME280;65788;52.284;20.890;2023-08-24T03:08:38;100593.45;;;24.96;45.98
76827;BME280;65788;52.284;20.890;2023-08-24T03:11:05;100592.66;;;24.96;45.97
76827;BME280;65788;52.284;20.890;2023-08-24T03:13:36;100589.77;;;24.96;45.92
76827;BME280;65788;52.284;20.890;2023-08-24T03:16:07;100590.69;;;24.96;45.93
76827;BME280;65788;52.284;20.890;2023-08-24T03:18:35;100593.45;;;24.97;45.90
76827;BME280;65788;52.284;20.890;2023-08-24T03:21:02;100586.67;;;24.96;45.87
76827;BME280;65788;52.284;20.890;2023-08-24T03:23:29;100586.84;;;24.96;45.87
76827;BME280;65788;52.284;20.890;2023-08-24T03:25:57;100585.77;;;24.96;45.88
76827;BME280;65788;52.284;20.890;2023-08-24T03:28:24;100578.41;;;24.94;45.89
76827;BME280;65788;52.284;20.890;2023-08-24T03:30:52;100577.84;;;24.93;45.89
76827;BME280;65788;52.284;20.890;2023-08-24T03:33:19;100573.15;;;24.93;45.89
76827;BME280;65788;52.284;20.890;2023-08-24T03:35:46;100576.73;;;24.88;45.88
76827;BME280;65788;52.284;20.890;2023-08-24T03:38:13;100580.83;;;24.87;45.93
76827;BME280;65788;52.284;20.890;2023-08-24T03:40:40;100579.41;;;24.87;45.91
76827;BME280;65788;52.284;20.890;2023-08-24T03:43:07;100580.84;;;24.88;45.88
76827;BME280;65788;52.284;20.890;2023-08-24T03:45:34;100577.05;;;24.90;45.84
76827;BME280;65788;52.284;20.890;2023-08-24T03:48:01;100576.75;;;24.88;45.81
76827;BME280;65788;52.284;20.890;2023-08-24T03:50:28;100577.66;;;24.88;45.78
76827;BME280;65788;52.284;20.890;2023-08-24T03:52:57;100578.77;;;24.89;45.73
76827;BME280;65788;52.284;20.890;2023-08-24T03:55:24;100583.73;;;24.88;45.75
76827;BME280;65788;52.284;20.890;2023-08-24T03:57:53;100584.85;;;24.88;45.72
76827;BME280;65788;52.284;20.890;2023-08-24T04:00:21;100586.88;;;24.88;45.72
76827;BME280;65788;52.284;20.890;2023-08-24T04:02:48;100591.13;;;24.87;45.69
76827;BME280;65788;52.284;20.890;2023-08-24T04:05:15;100586.88;;;24.87;45.70
76827;BME280;65788;52.284;20.890;2023-08-24T04:07:42;100590.90;;;24.87;45.66
76827;BME280;65788;52.284;20.890;2023-08-24T04:10:09;100595.36;;;24.86;45.67
76827;BME280;65788;52.284;20.890;2023-08-24T04:12:38;100597.21;;;24.88;45.64
76827;BME280;65788;52.284;20.890;2023-08-24T04:15:06;100594.36;;;24.87;45.64
76827;BME280;65788;52.284;20.890;2023-08-24T04:17:33;100597.25;;;24.85;45.66
76827;BME280;65788;52.284;20.890;2023-08-24T04:20:00;100599.58;;;24.84;45.68
76827;BME280;65788;52.284;20.890;2023-08-24T04:22:27;100596.72;;;24.84;45.70
76827;BME280;65788;52.284;20.890;2023-08-24T04:24:54;100596.72;;;24.81;45.80
76827;BME280;65788;52.284;20.890;2023-08-24T04:27:21;100596.36;;;24.83;45.75
76827;BME280;65788;52.284;20.890;2023-08-24T04:29:49;100598.11;;;24.83;45.75
76827;BME280;65788;52.284;20.890;2023-08-24T04:32:15;100594.64;;;24.80;45.82
76827;BME280;65788;52.284;20.890;2023-08-24T04:34:43;100587.33;;;24.81;45.83
76827;BME280;65788;52.284;20.890;2023-08-24T04:37:10;100584.45;;;24.79;45.87
76827;BME280;65788;52.284;20.890;2023-08-24T04:39:36;100587.42;;;24.80;45.86
76827;BME280;65788;52.284;20.890;2023-08-24T04:42:04;100583.73;;;24.80;45.90
76827;BME280;65788;52.284;20.890;2023-08-24T04:44:32;100584.95;;;24.80;45.90
76827;BME280;65788;52.284;20.890;2023-08-24T04:46:59;100587.25;;;24.80;45.89
76827;BME280;65788;52.284;20.890;2023-08-24T04:49:26;100592.19;;;24.78;45.91
76827;BME280;65788;52.284;20.890;2023-08-24T04:51:55;100589.52;;;24.78;45.90
76827;BME280;65788;52.284;20.890;2023-08-24T04:54:22;100592.02;;;24.77;45.91
76827;BME280;65788;52.284;20.890;2023-08-24T04:56:49;100591.91;;;24.77;45.90
76827;BME280;65788;52.284;20.890;2023-08-24T04:59:15;100591.77;;;24.73;45.91
76827;BME280;65788;52.284;20.890;2023-08-24T05:01:42;100594.69;;;24.66;46.15
76827;BME280;65788;52.284;20.890;2023-08-24T05:04:10;100588.17;;;24.56;46.20
76827;BME280;65788;52.284;20.890;2023-08-24T05:06:37;100588.57;;;24.54;46.38
76827;BME280;65788;52.284;20.890;2023-08-24T05:09:04;100585.32;;;24.60;46.22
76827;BME280;65788;52.284;20.890;2023-08-24T05:11:31;100590.44;;;24.60;46.22
76827;BME280;65788;52.284;20.890;2023-08-24T05:13:59;100592.50;;;24.68;46.08
76827;BME280;65788;52.284;20.890;2023-08-24T05:16:26;100594.17;;;24.72;46.11
76827;BME280;65788;52.284;20.890;2023-08-24T05:18:54;100596.41;;;24.65;46.17
76827;BME280;65788;52.284;20.890;2023-08-24T05:21:21;100602.66;;;24.53;46.45
76827;BME280;65788;52.284;20.890;2023-08-24T05:23:48;100601.65;;;24.38;46.86
76827;BME280;65788;52.284;20.890;2023-08-24T05:26:15;100602.45;;;24.21;47.20
76827;BME280;65788;52.284;20.890;2023-08-24T05:28:49;100605.05;;;24.04;47.60
76827;BME280;65788;52.284;20.890;2023-08-24T05:31:16;100605.85;;;24.06;47.73
76827;BME280;65788;52.284;20.890;2023-08-24T05:33:43;100609.48;;;24.25;47.25
76827;BME280;65788;52.284;20.890;2023-08-24T05:36:10;100607.55;;;24.30;47.10
76827;BME280;65788;52.284;20.890;2023-08-24T05:38:37;100612.92;;;24.18;47.42
76827;BME280;65788;52.284;20.890;2023-08-24T05:41:04;100608.23;;;23.71;48.23
76827;BME280;65788;52.284;20.890;2023-08-24T05:43:34;100608.30;;;23.46;49.12
76827;BME280;65788;52.284;20.890;2023-08-24T05:46:03;100609.98;;;23.70;48.54
76827;BME280;65788;52.284;20.890;2023-08-24T05:48:30;100611.03;;;23.58;49.04
76827;BME280;65788;52.284;20.890;2023-08-24T05:50:57;100611.77;;;23.61;49.02
76827;BME280;65788;52.284;20.890;2023-08-24T05:53:24;100615.02;;;23.46;49.58
76827;BME280;65788;52.284;20.890;2023-08-24T05:55:51;100611.90;;;23.49;49.61
76827;BME280;65788;52.284;20.890;2023-08-24T05:58:21;100612.23;;;23.80;49.02
76827;BME280;65788;52.284;20.890;2023-08-24T06:00:56;100613.24;;;24.09;48.61
76827;BME280;65788;52.284;20.890;2023-08-24T06:03:24;100611.17;;;24.15;48.61
76827;BME280;65788;52.284;20.890;2023-08-24T06:05:51;100617.66;;;24.32;48.83
76827;BME280;65788;52.284;20.890;2023-08-24T06:08:19;100614.73;;;24.40;48.80
76827;BME280;65788;52.284;20.890;2023-08-24T06:10:46;100609.61;;;24.32;49.09
76827;BME280;65788;52.284;20.890;2023-08-24T06:13:12;100615.38;;;24.07;49.49
76827;BME280;65788;52.284;20.890;2023-08-24T06:15:39;100611.21;;;24.20;49.63
76827;BME280;65788;52.284;20.890;2023-08-24T06:18:06;100609.10;;;24.32;49.34
76827;BME280;65788;52.284;20.890;2023-08-24T06:20:35;100614.68;;;24.28;49.25
76827;BME280;65788;52.284;20.890;2023-08-24T06:23:02;100611.39;;;24.35;49.10
76827;BME280;65788;52.284;20.890;2023-08-24T06:25:29;100607.50;;;24.52;48.30
76827;BME280;65788;52.284;20.890;2023-08-24T06:27:58;100606.98;;;24.09;49.16
76827;BME280;65788;52.284;20.890;2023-08-24T06:30:27;100609.05;;;24.07;49.60
76827;BME280;65788;52.284;20.890;2023-08-24T06:32:59;100611.08;;;24.32;49.42
76827;BME280;65788;52.284;20.890;2023-08-24T06:35:26;100606.73;;;24.37;49.35
76827;BME280;65788;52.284;20.890;2023-08-24T06:37:56;100605.70;;;24.57;49.35
76827;BME280;65788;52.284;20.890;2023-08-24T06:40:23;100604.48;;;24.27;49.58
76827;BME280;65788;52.284;20.890;2023-08-24T06:42:50;100603.98;;;24.09;50.26
76827;BME280;65788;52.284;20.890;2023-08-24T06:45:17;100605.48;;;24.03;50.40
76827;BME280;65788;52.284;20.890;2023-08-24T06:47:46;100605.95;;;23.93;50.48
76827;BME280;65788;52.284;20.890;2023-08-24T06:50:14;100608.14;;;24.00;50.24
76827;BME280;65788;52.284;20.890;2023-08-24T06:52:41;100602.77;;;24.17;49.86
76827;BME280;65788;52.284;20.890;2023-08-24T06:55:08;100605.27;;;24.13;49.76
76827;BME280;65788;52.284;20.890;2023-08-24T06:57:36;100604.72;;;23.99;50.02
76827;BME280;65788;52.284;20.890;2023-08-24T07:00:04;100603.48;;;24.04;50.00
76827;BME280;65788;52.284;20.890;2023-08-24T07:02:36;100601.98;;;24.23;49.48
76827;BME280;65788;52.284;20.890;2023-08-24T07:05:04;100606.44;;;24.27;49.13
76827;BME280;65788;52.284;20.890;2023-08-24T07:07:36;100609.55;;;24.12;49.33
76827;BME280;65788;52.284;20.890;2023-08-24T07:10:03;100613.15;;;24.04;49.48
76827;BME280;65788;52.284;20.890;2023-08-24T07:12:30;100614.46;;;24.00;49.56
76827;BME280;65788;52.284;20.890;2023-08-24T07:14:58;100613.45;;;24.08;49.41
